Aeroporto :
LOGIN :

Iscrizione | Disclaimer

   EN    FR    IT 

 










Sommario :    VFR   VFR Marginale   IFR   IFR Intensivo   IFR Molto Intensivo
Visibilità : 
Base nubi : 
>= 8 km
>= 3000ft
5 / 8 km
1000 / 3000 ft
1500m / 5 km
500 / 1000 ft
800 / 1500m
200 / 500 ft
< 800m
< 200 ft
Simboli :   Temporali  Nebbia  Neve Forte  Precipitazioni Forti  Vento > 20 kt
SIGMETs :   Varie  Temporali  Ghiacco  Turbolenza  Onda orograficha  Ceneri Vulcaniche







- Altitudine del aeroporto : 527 ft
- Codice IATA : DBV


LDDU - Dubrovnik

ULTIMO METAR :
  • 271200Z 30010KT CAVOK 31/12 Q1017 NOSIG

METARs OBSOLETI :
  • 271130Z 28008KT 230V320 CAVOK 31/11 Q1017 NOSIG
  • 271100Z 27007KT 210V320 CAVOK 31/13 Q1017 NOSIG
  • 271030Z VRB06KT CAVOK 32/12 Q1018 NOSIG
  • 271000Z 23006KT 190V290 CAVOK 31/13 Q1018 NOSIG
  • 270930Z 20006KT 150V250 CAVOK 32/12 Q1018 NOSIG

TAF TAF LDDU
Valido dal 27 a 12 ore il 28 a 12 ore UTC


271125Z 2712/2812 28009KT CAVOK TX33/2811Z TN27/2803Z
BECMG 2718/2720 02006KT
BECMG 2720/2722 02018KT
PROB40
TEMPO 2722/2807 02018G30KT
PROB40 2808/2812 24008KT
Nessun NOTAM noto per questo aeroporto.



MetMap, La meteo Aeronautica in un colpo d'occhio ! - Copyright ORBIFLY Dicembre 2007 - Disclaimer

ORBIFLY MET'MAP TEAM :

Programmazione e sviluppo : Alexandra Zaïnal
Concezione e sviluppo : Baudouin d'Aumeries
Co-Programmazione e sviluppo : Marc-Olivier Méhu
Supporto tecnico e logistico : Manuel Goepfert
Aiuto per la traduzione : Arnaldo La Scala

Contatto : metmap@orbifly.com




FONTI E CREDITI :

   NOAA